createdAt,value
2023-03-25T00:00:23.066Z,2.30
2023-03-25T00:02:52.525Z,2.20
2023-03-25T00:05:28.669Z,2.53
2023-03-25T00:07:55.628Z,2.28
2023-03-25T00:10:22.487Z,2.47
2023-03-25T00:12:55.649Z,2.72
2023-03-25T00:15:23.800Z,2.63
2023-03-25T00:17:57.995Z,2.40
2023-03-25T00:20:24.809Z,2.63
2023-03-25T00:22:51.642Z,2.47
2023-03-25T00:25:26.646Z,3.15
2023-03-25T00:27:59.809Z,2.72
2023-03-25T00:30:32.725Z,2.40
2023-03-25T00:33:01.806Z,2.08
2023-03-25T00:35:29.167Z,2.40
2023-03-25T00:38:09.692Z,2.75
2023-03-25T00:40:36.499Z,2.90
2023-03-25T00:43:05.028Z,2.45
2023-03-25T00:45:38.793Z,2.80
2023-03-25T00:48:07.099Z,2.70
2023-03-25T00:50:40.800Z,2.70
2023-03-25T00:53:14.744Z,3.72
2023-03-25T00:55:49.271Z,2.50
2023-03-25T00:58:16.860Z,3.00
2023-03-25T01:00:43.654Z,2.70
2023-03-25T01:03:30.864Z,2.70
2023-03-25T01:06:04.761Z,2.33
2023-03-25T01:08:38.730Z,2.50
2023-03-25T01:11:20.895Z,2.78
2023-03-25T01:13:57.698Z,2.67
2023-03-25T01:16:30.802Z,2.60
2023-03-25T01:18:57.680Z,2.22
2023-03-25T01:21:24.836Z,2.83
2023-03-25T01:23:57.726Z,2.65
2023-03-25T01:26:30.733Z,2.42
2023-03-25T01:28:57.632Z,2.75
2023-03-25T01:31:30.322Z,2.38
2023-03-25T01:34:04.740Z,3.53
2023-03-25T01:36:31.754Z,2.60
2023-03-25T01:39:06.755Z,2.70
2023-03-25T01:41:48.509Z,3.10
2023-03-25T01:44:28.790Z,2.80
2023-03-25T01:46:57.445Z,2.63
2023-03-25T01:49:46.784Z,3.47
2023-03-25T01:52:27.868Z,2.65
2023-03-25T01:54:56.997Z,2.80
2023-03-25T01:57:37.839Z,2.80
2023-03-25T02:00:09.456Z,2.70
2023-03-25T02:02:46.840Z,3.10
2023-03-25T02:05:26.150Z,2.60
2023-03-25T02:08:04.822Z,3.05
2023-03-25T02:10:32.568Z,2.90
2023-03-25T02:13:00.113Z,3.08
2023-03-25T02:15:33.829Z,2.55
2023-03-25T02:18:40.676Z,2.60
2023-03-25T02:21:44.840Z,3.00
2023-03-25T02:24:30.178Z,2.45
2023-03-25T02:27:21.881Z,3.10
2023-03-25T02:30:14.070Z,3.03
2023-03-25T02:33:09.886Z,3.03
2023-03-25T02:36:05.149Z,3.13
2023-03-25T02:38:47.888Z,2.50
2023-03-25T02:41:25.736Z,3.20
2023-03-25T02:44:11.867Z,2.65
2023-03-25T02:46:46.004Z,3.08
2023-03-25T02:49:42.849Z,2.88
2023-03-25T02:52:12.277Z,2.30
2023-03-25T02:54:41.866Z,2.80
2023-03-25T02:57:17.887Z,2.92
2023-03-25T02:59:47.262Z,3.03
2023-03-25T03:02:15.852Z,3.05
2023-03-25T03:04:57.895Z,3.22
2023-03-25T03:07:33.767Z,3.13
2023-03-25T03:10:29.933Z,3.47
2023-03-25T03:13:11.024Z,3.22
2023-03-25T03:15:57.950Z,4.00
2023-03-25T03:18:44.866Z,4.40
2023-03-25T03:21:30.261Z,3.55
2023-03-25T03:24:09.942Z,3.55
2023-03-25T03:26:55.982Z,3.10
2023-03-25T03:29:37.982Z,3.33
2023-03-25T03:32:35.154Z,3.45
2023-03-25T03:35:08.826Z,2.97
2023-03-25T03:37:51.987Z,3.25
2023-03-25T03:40:22.866Z,3.30
2023-03-25T03:43:19.986Z,2.90
2023-03-25T03:45:51.898Z,3.67
2023-03-25T03:48:31.990Z,3.75
2023-03-25T03:51:14.104Z,3.42
2023-03-25T03:53:57.018Z,4.13
2023-03-25T03:56:32.348Z,3.70
2023-03-25T03:59:09.321Z,3.30
2023-03-25T04:01:47.859Z,3.67
2023-03-25T04:04:27.280Z,3.83
2023-03-25T04:07:21.019Z,3.65
2023-03-25T04:10:03.142Z,3.92
2023-03-25T04:12:38.755Z,3.67
2023-03-25T04:15:13.095Z,4.22
2023-03-25T04:17:47.054Z,3.00
2023-03-25T04:20:22.065Z,3.10
2023-03-25T04:23:00.056Z,3.13
2023-03-25T04:25:27.640Z,3.80
2023-03-25T04:28:05.034Z,3.92
2023-03-25T04:30:31.767Z,4.40
2023-03-25T04:33:07.095Z,4.82
2023-03-25T04:35:41.057Z,4.57
2023-03-25T04:38:08.431Z,4.10
2023-03-25T04:40:42.049Z,4.28
2023-03-25T04:43:08.993Z,4.15
2023-03-25T04:45:43.098Z,4.30
2023-03-25T04:48:22.326Z,4.00
2023-03-25T04:50:58.082Z,4.45
2023-03-25T04:53:39.180Z,3.63
2023-03-25T04:56:07.736Z,4.93
2023-03-25T04:58:43.072Z,3.92
2023-03-25T05:01:32.889Z,3.72
2023-03-25T05:04:11.094Z,4.22
2023-03-25T05:06:50.185Z,4.40
2023-03-25T05:09:27.139Z,3.97
2023-03-25T05:11:55.938Z,4.05
2023-03-25T05:14:29.100Z,4.85
2023-03-25T05:17:09.099Z,4.85
2023-03-25T05:19:35.969Z,4.30
2023-03-25T05:22:10.233Z,3.80
2023-03-25T05:24:44.120Z,3.80
2023-03-25T05:27:11.006Z,4.10
2023-03-25T05:29:37.758Z,4.47
2023-03-25T05:32:11.102Z,4.10
2023-03-25T05:34:38.621Z,4.55
2023-03-25T05:37:12.181Z,5.72
2023-03-25T05:39:39.309Z,3.63
2023-03-25T05:42:13.160Z,4.38
2023-03-25T05:44:50.891Z,4.93
2023-03-25T05:47:30.193Z,4.88
2023-03-25T05:50:03.172Z,4.30
2023-03-25T05:52:31.486Z,5.07
2023-03-25T05:55:11.188Z,4.47
2023-03-25T05:57:45.203Z,4.10
2023-03-25T06:00:13.700Z,3.97
2023-03-25T06:02:43.180Z,4.68
2023-03-25T06:05:20.307Z,4.82
2023-03-25T06:08:02.257Z,4.13
2023-03-25T06:10:29.663Z,4.38
2023-03-25T06:12:56.710Z,5.35
2023-03-25T06:15:35.413Z,3.83
2023-03-25T06:18:11.227Z,3.85
2023-03-25T06:20:38.176Z,3.92
2023-03-25T06:23:12.232Z,4.05
2023-03-25T06:25:39.246Z,3.65
2023-03-25T06:28:25.260Z,4.57
2023-03-25T06:30:59.268Z,4.15
2023-03-25T06:33:43.529Z,4.95
2023-03-25T06:36:19.312Z,4.22
2023-03-25T06:38:50.468Z,3.92
2023-03-25T06:41:27.226Z,4.10
2023-03-25T06:43:54.115Z,5.07
2023-03-25T06:46:27.311Z,4.18
2023-03-25T06:49:00.258Z,4.70
2023-03-25T06:51:33.286Z,4.18
2023-03-25T06:54:00.542Z,4.65
2023-03-25T06:56:27.426Z,4.85
2023-03-25T06:59:00.279Z,3.92
2023-03-25T07:01:27.262Z,3.65
2023-03-25T07:04:00.291Z,3.83
2023-03-25T07:06:27.195Z,4.28
2023-03-25T07:09:00.344Z,3.63
2023-03-25T07:11:31.015Z,4.10
2023-03-25T07:14:04.356Z,4.38
2023-03-25T07:16:31.385Z,3.53
2023-03-25T07:19:05.325Z,3.67
2023-03-25T07:21:32.127Z,5.22
2023-03-25T07:23:59.024Z,4.63
2023-03-25T07:26:32.362Z,4.47
2023-03-25T07:29:05.353Z,4.10
2023-03-25T07:31:32.349Z,4.68
2023-03-25T07:34:07.404Z,5.78
2023-03-25T07:36:34.325Z,7.93
2023-03-25T07:39:01.183Z,6.45
2023-03-25T07:41:41.442Z,4.97
2023-03-25T07:44:08.486Z,3.97
2023-03-25T07:46:41.483Z,3.92
2023-03-25T07:49:14.307Z,3.90
2023-03-25T07:51:41.169Z,4.63
2023-03-25T07:54:14.404Z,3.75
2023-03-25T07:56:41.481Z,3.72
2023-03-25T07:59:16.400Z,4.20
2023-03-25T08:01:43.209Z,4.10
2023-03-25T08:04:16.419Z,4.78
2023-03-25T08:06:49.541Z,4.70
2023-03-25T08:09:16.501Z,4.00
2023-03-25T08:11:51.449Z,4.60
2023-03-25T08:14:18.484Z,3.78
2023-03-25T08:16:52.443Z,4.40
2023-03-25T08:19:19.410Z,4.63
2023-03-25T08:21:52.528Z,4.30
2023-03-25T08:24:25.392Z,3.90
2023-03-25T08:26:52.284Z,4.28
2023-03-25T08:29:26.442Z,3.80
2023-03-25T08:31:54.549Z,4.65
2023-03-25T08:37:01.143Z,4.50
2023-03-25T08:39:36.449Z,4.25
2023-03-25T08:42:03.470Z,4.00
2023-03-25T08:44:36.509Z,5.15
2023-03-25T08:47:05.514Z,4.15
2023-03-25T08:49:38.448Z,4.38
2023-03-25T08:52:08.891Z,4.32
2023-03-25T08:54:42.484Z,4.28
2023-03-25T08:57:09.487Z,5.05
2023-03-25T08:59:42.441Z,4.95
2023-03-25T09:02:18.521Z,4.60
2023-03-25T09:04:54.464Z,4.57
2023-03-25T09:07:30.201Z,4.18
2023-03-25T09:10:03.502Z,4.72
2023-03-25T09:12:32.510Z,4.00
2023-03-25T09:15:05.457Z,4.30
2023-03-25T09:17:33.952Z,4.47
2023-03-25T09:20:07.519Z,4.38
2023-03-25T09:22:38.216Z,4.15
2023-03-25T09:25:13.509Z,4.85
2023-03-25T09:27:40.688Z,3.92
2023-03-25T09:30:15.517Z,4.10
2023-03-25T09:32:42.661Z,3.72
2023-03-25T09:35:16.636Z,4.40
2023-03-25T09:37:52.096Z,5.28
2023-03-25T09:40:31.526Z,5.05
2023-03-25T09:43:20.778Z,3.92
2023-03-25T09:45:55.536Z,4.18
2023-03-25T09:48:25.501Z,3.65
2023-03-25T09:51:00.527Z,5.53
2023-03-25T09:53:39.309Z,4.60
2023-03-25T09:56:20.528Z,4.18
2023-03-25T09:58:50.535Z,3.60
2023-03-25T10:01:37.596Z,4.80
2023-03-25T10:04:16.417Z,4.63
2023-03-25T10:06:58.528Z,3.83
2023-03-25T10:09:47.361Z,3.88
2023-03-25T10:12:49.664Z,4.18
2023-03-25T10:15:44.627Z,4.07
2023-03-25T10:19:00.606Z,3.53
2023-03-25T10:21:50.586Z,4.53
2023-03-25T10:24:39.104Z,4.65
2023-03-25T10:27:21.625Z,3.20
2023-03-25T10:32:43.667Z,4.05
2023-03-25T10:35:53.787Z,3.97
2023-03-25T10:38:25.784Z,3.70
2023-03-25T10:41:25.681Z,3.20
2023-03-25T10:44:00.654Z,3.95
2023-03-25T10:46:57.670Z,4.07
2023-03-25T10:49:30.170Z,3.88
2023-03-25T10:54:40.061Z,3.30
2023-03-25T10:57:32.735Z,3.22
2023-03-25T11:00:25.657Z,3.63
2023-03-25T11:03:03.719Z,3.92
2023-03-25T11:05:35.619Z,2.92
2023-03-25T11:08:23.751Z,3.97
2023-03-25T11:11:04.949Z,3.13
2023-03-25T11:13:38.674Z,4.00
2023-03-25T11:16:12.711Z,3.58
2023-03-25T11:18:46.686Z,3.53
2023-03-25T11:21:21.696Z,3.20
2023-03-25T11:23:57.665Z,2.75
2023-03-25T11:26:33.892Z,3.83
2023-03-25T11:29:12.712Z,4.20
2023-03-25T11:31:48.786Z,3.63
2023-03-25T11:34:30.774Z,4.35
2023-03-25T11:37:04.580Z,4.97
2023-03-25T11:39:45.948Z,3.58
2023-03-25T11:42:32.182Z,3.58
2023-03-25T11:45:07.704Z,4.13
2023-03-25T11:47:44.802Z,3.92
2023-03-25T11:50:22.706Z,3.60
2023-03-25T11:52:59.831Z,4.15
2023-03-25T11:55:37.715Z,3.72
2023-03-25T11:58:28.734Z,4.20
2023-03-25T12:01:29.608Z,2.92
2023-03-25T12:04:13.880Z,2.55
2023-03-25T12:07:06.787Z,3.00
2023-03-25T12:09:33.605Z,2.88
2023-03-25T12:12:01.008Z,3.05
2023-03-25T12:14:54.748Z,2.88
2023-03-25T12:17:43.147Z,3.13
2023-03-25T12:20:37.793Z,2.92
2023-03-25T12:23:28.112Z,2.80
2023-03-25T12:26:17.899Z,3.38
2023-03-25T12:29:12.259Z,3.13
2023-03-25T12:32:00.811Z,2.95
2023-03-25T12:34:39.876Z,2.38
2023-03-25T12:37:32.722Z,2.83
2023-03-25T12:40:31.830Z,3.40
2023-03-25T12:43:10.488Z,2.67
2023-03-25T12:45:54.895Z,3.03
2023-03-25T12:49:05.811Z,3.05
2023-03-25T12:51:56.867Z,2.90
2023-03-25T12:54:49.826Z,3.45
2023-03-25T12:57:53.866Z,3.17
2023-03-25T13:00:32.545Z,3.45
2023-03-25T13:03:40.903Z,2.97
2023-03-25T13:06:16.638Z,3.65
2023-03-25T13:08:58.828Z,3.28
2023-03-25T13:11:44.873Z,3.15
2023-03-25T13:14:50.813Z,2.75
2023-03-25T13:17:34.885Z,3.10
2023-03-25T13:20:06.541Z,4.03
2023-03-25T13:22:46.857Z,3.58
2023-03-25T13:25:26.378Z,2.83
2023-03-25T13:28:03.894Z,3.30
2023-03-25T13:30:43.744Z,2.92
2023-03-25T13:33:31.900Z,2.75
2023-03-25T13:36:27.891Z,2.58
2023-03-25T13:39:11.926Z,3.25
2023-03-25T13:41:46.176Z,3.58
2023-03-25T13:44:19.920Z,3.38
2023-03-25T13:47:23.385Z,3.88
2023-03-25T13:50:13.891Z,3.10
2023-03-25T13:52:45.848Z,2.17
2023-03-25T13:55:28.064Z,3.22
2023-03-25T13:58:18.401Z,2.63
2023-03-25T14:01:36.936Z,3.17
2023-03-25T14:04:21.890Z,1.90
2023-03-25T14:07:27.955Z,1.50
2023-03-25T14:10:17.827Z,1.20
2023-03-25T14:13:05.931Z,1.38
2023-03-25T14:15:39.812Z,1.65
2023-03-25T14:18:22.950Z,2.65
2023-03-25T14:20:59.227Z,3.97
2023-03-25T14:23:38.931Z,3.22
2023-03-25T14:26:15.965Z,2.95
2023-03-25T14:28:51.978Z,3.13
2023-03-25T14:31:39.070Z,3.15
2023-03-25T14:34:11.975Z,3.03
2023-03-25T14:36:48.975Z,2.70
2023-03-25T14:39:30.800Z,2.75
2023-03-25T14:42:05.993Z,3.17
2023-03-25T14:44:56.018Z,2.95
2023-03-25T14:47:33.000Z,3.05
2023-03-25T14:50:15.998Z,3.42
2023-03-25T14:52:51.971Z,3.60
2023-03-25T14:55:35.043Z,3.22
2023-03-25T14:58:23.888Z,3.30
2023-03-25T15:01:09.016Z,3.00
2023-03-25T15:03:46.094Z,2.92
2023-03-25T15:06:34.283Z,2.95
2023-03-25T15:09:16.167Z,2.60
2023-03-25T15:11:53.083Z,3.08
2023-03-25T15:14:32.028Z,2.75
2023-03-25T15:17:09.028Z,2.90
2023-03-25T15:20:10.495Z,3.30
2023-03-25T15:22:45.033Z,3.63
2023-03-25T15:25:25.140Z,3.00
2023-03-25T15:28:41.081Z,3.63
2023-03-25T15:31:56.178Z,3.13
2023-03-25T15:34:54.843Z,3.50
2023-03-25T15:37:59.066Z,2.80
2023-03-25T15:40:41.118Z,3.63
2023-03-25T15:43:59.595Z,3.03
2023-03-25T15:47:13.304Z,3.05
2023-03-25T15:49:49.181Z,3.35
2023-03-25T15:52:42.070Z,3.20
2023-03-25T15:55:21.294Z,2.15
2023-03-25T15:58:06.132Z,2.20
2023-03-25T16:00:37.550Z,2.65
2023-03-25T16:03:23.269Z,4.20
2023-03-25T16:06:05.146Z,3.78
2023-03-25T16:08:43.175Z,4.00
2023-03-25T16:11:25.941Z,4.63
2023-03-25T16:14:23.162Z,3.42
2023-03-25T16:17:04.170Z,3.75
2023-03-25T16:19:41.561Z,4.60
2023-03-25T16:22:35.128Z,4.32
2023-03-25T16:25:14.698Z,5.25
2023-03-25T16:27:59.252Z,4.50
2023-03-25T16:30:38.362Z,3.88
2023-03-25T16:33:16.240Z,2.90
2023-03-25T16:35:50.221Z,3.05
2023-03-25T16:38:28.262Z,2.47
2023-03-25T16:41:11.595Z,2.92
2023-03-25T16:43:45.165Z,2.70
2023-03-25T16:46:21.268Z,4.00
2023-03-25T16:49:00.442Z,2.67
2023-03-25T16:51:32.125Z,2.58
2023-03-25T16:54:08.494Z,3.00
2023-03-25T16:56:39.534Z,3.47
2023-03-25T16:59:22.203Z,3.05
2023-03-25T17:02:01.366Z,4.07
2023-03-25T17:04:58.122Z,3.05
2023-03-25T17:07:35.328Z,2.88
2023-03-25T17:10:09.244Z,2.67
2023-03-25T17:12:36.202Z,2.45
2023-03-25T17:15:16.240Z,3.45
2023-03-25T17:17:57.276Z,2.95
2023-03-25T17:20:43.227Z,3.55
2023-03-25T17:23:42.513Z,3.33
2023-03-25T17:26:19.286Z,2.95
2023-03-25T17:28:58.480Z,3.25
2023-03-25T17:31:39.344Z,3.83
2023-03-25T17:34:19.300Z,3.28
2023-03-25T17:36:49.000Z,3.67
2023-03-25T17:39:25.287Z,3.47
2023-03-25T17:42:01.613Z,4.75
2023-03-25T17:44:51.325Z,4.60
2023-03-25T17:47:20.128Z,4.55
2023-03-25T17:49:54.295Z,4.00
2023-03-25T17:52:30.721Z,5.15
2023-03-25T17:54:58.685Z,4.15
2023-03-25T17:57:37.638Z,3.53
2023-03-25T18:00:12.348Z,4.10
2023-03-25T18:02:47.357Z,3.35
2023-03-25T18:05:15.492Z,4.18
2023-03-25T18:07:42.707Z,4.43
2023-03-25T18:10:26.350Z,4.63
2023-03-25T18:13:00.299Z,3.78
2023-03-25T18:15:27.810Z,3.45
2023-03-25T18:17:59.451Z,3.75
2023-03-25T18:20:36.457Z,3.88
2023-03-25T18:23:06.412Z,2.05
2023-03-25T18:25:40.325Z,2.17
2023-03-25T18:28:07.268Z,1.70
2023-03-25T18:30:58.362Z,1.65
2023-03-25T18:33:35.403Z,1.83
2023-03-25T18:36:08.340Z,2.13
2023-03-25T18:38:41.341Z,2.70
2023-03-25T18:41:10.621Z,2.65
2023-03-25T18:43:44.377Z,4.13
2023-03-25T18:46:32.439Z,3.90
2023-03-25T18:49:06.865Z,4.68
2023-03-25T18:51:40.434Z,5.40
2023-03-25T18:54:15.392Z,4.30
2023-03-25T18:56:42.545Z,4.85
2023-03-25T18:59:11.069Z,5.38
2023-03-25T19:01:44.550Z,5.05
2023-03-25T19:04:18.414Z,4.97
2023-03-25T19:06:52.400Z,5.53
2023-03-25T19:09:19.317Z,6.85
2023-03-25T19:11:53.426Z,6.00
2023-03-25T19:14:20.253Z,5.78
2023-03-25T19:17:03.229Z,5.55
2023-03-25T19:19:30.906Z,8.85
2023-03-25T19:22:04.416Z,8.30
2023-03-25T19:24:31.338Z,10.20
2023-03-25T19:27:12.417Z,8.90
2023-03-25T19:29:45.496Z,5.72
2023-03-25T19:32:19.413Z,5.97
2023-03-25T19:34:46.446Z,5.45
2023-03-25T19:37:13.817Z,4.63
2023-03-25T19:39:49.470Z,6.57
2023-03-25T19:42:16.644Z,5.68
2023-03-25T19:44:44.602Z,6.07
2023-03-25T19:47:18.538Z,5.53
2023-03-25T19:49:46.154Z,5.93
2023-03-25T19:52:19.485Z,5.50
2023-03-25T19:54:46.879Z,5.07
2023-03-25T19:57:20.525Z,4.30
2023-03-25T19:59:53.470Z,5.03
2023-03-25T20:02:27.723Z,5.32
2023-03-25T20:04:54.779Z,5.78
2023-03-25T20:07:28.560Z,6.18
2023-03-25T20:10:16.706Z,6.85
2023-03-25T20:12:59.678Z,7.30
2023-03-25T20:15:27.265Z,7.25
2023-03-25T20:18:02.602Z,5.88
2023-03-25T20:20:29.494Z,4.68
2023-03-25T20:23:06.510Z,6.15
2023-03-25T20:25:33.318Z,5.90
2023-03-25T20:28:07.539Z,5.28
2023-03-25T20:30:35.750Z,5.53
2023-03-25T20:33:09.609Z,6.28
2023-03-25T20:35:43.622Z,6.20
2023-03-25T20:38:11.665Z,5.03
2023-03-25T20:40:44.579Z,4.30
2023-03-25T20:43:20.621Z,4.88
2023-03-25T20:45:47.443Z,4.05
2023-03-25T20:48:21.593Z,4.22
2023-03-25T20:50:48.679Z,4.00
2023-03-25T20:53:22.573Z,3.88
2023-03-25T20:55:49.596Z,4.43
2023-03-25T20:58:23.542Z,3.90
2023-03-25T21:00:50.481Z,3.42
2023-03-25T21:03:30.594Z,3.72
2023-03-25T21:06:07.436Z,3.55
2023-03-25T21:08:47.577Z,3.05
2023-03-25T21:11:17.545Z,2.70
2023-03-25T21:13:44.430Z,2.72
2023-03-25T21:16:17.650Z,2.72
2023-03-25T21:18:44.719Z,2.38
2023-03-25T21:21:19.612Z,2.95
2023-03-25T21:23:46.774Z,3.40
2023-03-25T21:26:22.633Z,3.47
2023-03-25T21:28:49.769Z,3.33
2023-03-25T21:31:27.679Z,4.13
2023-03-25T21:33:56.226Z,3.10
2023-03-25T21:36:38.601Z,2.78
2023-03-25T21:39:06.881Z,2.75
2023-03-25T21:41:41.754Z,2.45
2023-03-25T21:44:08.892Z,2.88
2023-03-25T21:46:43.684Z,2.97
2023-03-25T21:49:11.721Z,2.75
2023-03-25T21:51:42.528Z,3.05
2023-03-25T21:54:17.675Z,3.08
2023-03-25T21:56:50.750Z,3.25
2023-03-25T21:59:17.681Z,3.83
2023-03-25T22:01:51.638Z,3.28
2023-03-25T22:04:25.696Z,3.70
2023-03-25T22:06:52.581Z,2.55
2023-03-25T22:09:25.697Z,2.55
2023-03-25T22:12:00.126Z,3.55
2023-03-25T22:14:33.864Z,2.85
2023-03-25T22:17:00.812Z,2.75
2023-03-25T22:19:27.713Z,2.88
2023-03-25T22:22:00.686Z,3.42
2023-03-25T22:24:30.111Z,2.30
2023-03-25T22:27:03.765Z,2.88
2023-03-25T22:29:30.618Z,3.05
2023-03-25T22:32:03.759Z,3.17
2023-03-25T22:34:30.835Z,2.97
2023-03-25T22:37:03.696Z,2.45
2023-03-25T22:39:37.084Z,2.00
2023-03-25T22:42:10.699Z,2.00
2023-03-25T22:44:37.500Z,1.80
2023-03-25T22:47:10.741Z,1.67
2023-03-25T22:49:40.468Z,1.80
2023-03-25T22:52:09.064Z,2.10
2023-03-25T22:54:42.830Z,1.88
2023-03-25T22:57:17.759Z,1.73
2023-03-25T22:59:44.526Z,3.28
2023-03-25T23:02:14.156Z,3.45
2023-03-25T23:04:47.927Z,3.22
2023-03-25T23:07:14.879Z,3.45
2023-03-25T23:09:48.796Z,3.33
2023-03-25T23:12:20.254Z,3.72
2023-03-25T23:14:58.816Z,3.20
2023-03-25T23:17:27.007Z,3.38
2023-03-25T23:20:00.836Z,2.85
2023-03-25T23:22:27.992Z,3.47
2023-03-25T23:25:02.892Z,3.67
2023-03-25T23:27:40.810Z,3.17
2023-03-25T23:30:14.790Z,3.63
2023-03-25T23:32:42.213Z,3.15
2023-03-25T23:35:25.031Z,3.28
2023-03-25T23:37:56.725Z,3.20
2023-03-25T23:40:32.825Z,2.90
2023-03-25T23:42:59.584Z,2.90
2023-03-25T23:45:36.863Z,3.08
2023-03-25T23:48:09.898Z,3.00
2023-03-25T23:50:36.741Z,2.80
2023-03-25T23:53:09.838Z,3.08
2023-03-25T23:55:37.259Z,2.60
2023-03-25T23:58:10.864Z,2.88
